BBC306 LIRF-VGHS
Flight info
| Callsign | BBC306 |
|---|---|
| Flight time | N/A |
| Altitude | 36000 |
| Route | OKUNO L5 ATRUP DCT PES DCT ETRIN DCT XOLTA DCT RAMAP DCT NISVA Q13 UDROS UM859 KARDE UN644 ROLIN N644 LAGAS DCT DISKA M737 VERCA M747 SUBUT T923 ERLEV M11 RODAR A909 TUNEK DCT TUGTA A909 LEMOD N644 DI M875 JHANG DCT ENRIR DCT PATNI DCT SULOM M890 CHG W35 ONOGI DCT SP DCT GUVGU DCT BRL J98 TATAK DCT KEVOD J71 PPT A201 RAJ G463 IDLOX |
| Aircraft | B789/H-SDE1E2E3FGHIJ2J3J4J5M1RWXY/LB1D1 |
Departure
| Time | N/A |
|---|---|
| Airport | Rome–Fiumicino Leonardo da Vinci International Airport (LIRF) |
Arrival
| Time | 2026-05-07 19:09 |
|---|---|
| Airport | Hazrat Shahjalal International Airport (VGHS) |
| Time | Latitude | Longitude | Altitude | Speed | Heading |
|---|---|---|---|---|---|
| 2026-05-07 17:41 | 28.97809 | 78.72706 | 39890 ft | 535 kts | 134° |
| 2026-05-07 17:41 | 28.95293 | 78.75842 | 39891 ft | 535 kts | 134° |
| 2026-05-07 17:41 | 28.90260 | 78.82110 | 39884 ft | 534 kts | 134° |
| 2026-05-07 17:42 | 28.85259 | 78.88328 | 39880 ft | 534 kts | 134° |
| 2026-05-07 17:42 | 28.80311 | 78.94663 | 39900 ft | 534 kts | 131° |
| 2026-05-07 17:43 | 28.75438 | 79.01077 | 39881 ft | 534 kts | 132° |
| 2026-05-07 17:43 | 28.70640 | 79.07475 | 39876 ft | 533 kts | 131° |
| 2026-05-07 17:44 | 28.65798 | 79.13886 | 39871 ft | 533 kts | 132° |
| 2026-05-07 17:44 | 28.60975 | 79.20269 | 39882 ft | 534 kts | 132° |
| 2026-05-07 17:45 | 28.56124 | 79.26685 | 39881 ft | 534 kts | 132° |
| 2026-05-07 17:45 | 28.51284 | 79.33066 | 39875 ft | 535 kts | 132° |
| 2026-05-07 17:46 | 28.46422 | 79.39477 | 39877 ft | 535 kts | 132° |
| 2026-05-07 17:46 | 28.41570 | 79.45912 | 39879 ft | 536 kts | 127° |
| 2026-05-07 17:47 | 28.37259 | 79.52835 | 39882 ft | 536 kts | 126° |
| 2026-05-07 17:47 | 28.32984 | 79.59717 | 39882 ft | 535 kts | 127° |
| 2026-05-07 17:48 | 28.28678 | 79.66619 | 39880 ft | 534 kts | 126° |
| 2026-05-07 17:48 | 28.24383 | 79.73512 | 39881 ft | 535 kts | 127° |
| 2026-05-07 17:49 | 28.20095 | 79.80366 | 39879 ft | 535 kts | 127° |
| 2026-05-07 17:49 | 28.15786 | 79.87257 | 39881 ft | 535 kts | 127° |
| 2026-05-07 17:50 | 28.11471 | 79.94135 | 39879 ft | 535 kts | 127° |
| 2026-05-07 17:50 | 28.07160 | 80.01004 | 39883 ft | 534 kts | 127° |
| 2026-05-07 17:51 | 28.02857 | 80.07843 | 39885 ft | 534 kts | 127° |
| 2026-05-07 17:51 | 27.99121 | 80.15048 | 39896 ft | 536 kts | 115° |
| 2026-05-07 17:52 | 27.96045 | 80.22770 | 39889 ft | 537 kts | 115° |
| 2026-05-07 17:52 | 27.92944 | 80.30471 | 39897 ft | 537 kts | 115° |
| 2026-05-07 17:53 | 27.89866 | 80.38122 | 39888 ft | 538 kts | 115° |
| 2026-05-07 17:53 | 27.86754 | 80.45841 | 39893 ft | 538 kts | 115° |
| 2026-05-07 17:54 | 27.83645 | 80.53531 | 39895 ft | 539 kts | 115° |
| 2026-05-07 17:54 | 27.80530 | 80.61230 | 39894 ft | 538 kts | 116° |
| 2026-05-07 17:55 | 27.77425 | 80.68882 | 39892 ft | 538 kts | 116° |
| 2026-05-07 17:55 | 27.74301 | 80.76570 | 39894 ft | 538 kts | 116° |
| 2026-05-07 17:56 | 27.71170 | 80.84259 | 39890 ft | 538 kts | 116° |
| 2026-05-07 17:56 | 27.68057 | 80.91888 | 39890 ft | 537 kts | 116° |
| 2026-05-07 17:57 | 27.65431 | 80.98315 | 39893 ft | 537 kts | 116° |
| 2026-05-07 17:57 | 27.62317 | 81.05921 | 39889 ft | 537 kts | 116° |
| 2026-05-07 17:58 | 27.59179 | 81.13570 | 39883 ft | 537 kts | 116° |
| 2026-05-07 17:58 | 27.56042 | 81.21203 | 39883 ft | 536 kts | 116° |
| 2026-05-07 17:59 | 27.52902 | 81.28829 | 39882 ft | 535 kts | 116° |
| 2026-05-07 17:59 | 27.49774 | 81.36411 | 39883 ft | 536 kts | 116° |
| 2026-05-07 18:00 | 27.46625 | 81.44031 | 39882 ft | 536 kts | 117° |
| 2026-05-07 18:00 | 27.43493 | 81.51592 | 39879 ft | 535 kts | 117° |
| 2026-05-07 18:01 | 27.40338 | 81.59198 | 39874 ft | 535 kts | 117° |
| 2026-05-07 18:01 | 27.37180 | 81.66796 | 39879 ft | 536 kts | 117° |
| 2026-05-07 18:02 | 27.32500 | 81.78028 | 39880 ft | 535 kts | 117° |
| 2026-05-07 18:03 | 27.29336 | 81.85606 | 39874 ft | 535 kts | 117° |
| 2026-05-07 18:03 | 27.26169 | 81.93174 | 39872 ft | 535 kts | 117° |
| 2026-05-07 18:04 | 27.22997 | 82.00743 | 39873 ft | 534 kts | 117° |
| 2026-05-07 18:04 | 27.19843 | 82.08254 | 39870 ft | 534 kts | 118° |
| 2026-05-07 18:05 | 27.16664 | 82.15810 | 39869 ft | 535 kts | 118° |
| 2026-05-07 18:05 | 27.13261 | 82.23209 | 39877 ft | 531 kts | 123° |
| 2026-05-07 18:06 | 27.09492 | 82.30359 | 39875 ft | 532 kts | 123° |
| 2026-05-07 18:06 | 27.05742 | 82.37541 | 39872 ft | 532 kts | 123° |
| 2026-05-07 18:07 | 27.02002 | 82.44650 | 39871 ft | 532 kts | 124° |
| 2026-05-07 18:07 | 26.98238 | 82.51813 | 39865 ft | 532 kts | 124° |
| 2026-05-07 18:08 | 26.94492 | 82.58923 | 39864 ft | 533 kts | 124° |
| 2026-05-07 18:08 | 26.90712 | 82.66087 | 39858 ft | 533 kts | 124° |
| 2026-05-07 18:09 | 26.86929 | 82.73246 | 39857 ft | 533 kts | 124° |
| 2026-05-07 18:09 | 26.83138 | 82.80406 | 39851 ft | 534 kts | 124° |
| 2026-05-07 18:10 | 26.79343 | 82.87565 | 39854 ft | 535 kts | 124° |
| 2026-05-07 18:10 | 26.75552 | 82.94703 | 39852 ft | 536 kts | 124° |
| 2026-05-07 18:11 | 26.71738 | 83.01875 | 39851 ft | 535 kts | 125° |
| 2026-05-07 18:11 | 26.67954 | 83.08976 | 39853 ft | 533 kts | 125° |
| 2026-05-07 18:12 | 26.64149 | 83.16107 | 39855 ft | 534 kts | 125° |
| 2026-05-07 18:12 | 26.60327 | 83.23257 | 39862 ft | 534 kts | 125° |
| 2026-05-07 18:13 | 26.56507 | 83.30394 | 39862 ft | 534 kts | 125° |
| 2026-05-07 18:13 | 26.52708 | 83.37479 | 39858 ft | 535 kts | 126° |
| 2026-05-07 18:14 | 26.48877 | 83.44611 | 39858 ft | 535 kts | 126° |
| 2026-05-07 18:14 | 26.45057 | 83.51713 | 39845 ft | 536 kts | 126° |
| 2026-05-07 18:15 | 26.41217 | 83.58841 | 39842 ft | 535 kts | 126° |
| 2026-05-07 18:15 | 26.37365 | 83.65980 | 39839 ft | 536 kts | 126° |
| 2026-05-07 18:16 | 26.33536 | 83.73065 | 39839 ft | 535 kts | 126° |
| 2026-05-07 18:16 | 26.29683 | 83.80182 | 39849 ft | 535 kts | 126° |
| 2026-05-07 18:17 | 26.25824 | 83.87300 | 39841 ft | 535 kts | 127° |
| 2026-05-07 18:17 | 26.22009 | 83.94362 | 39838 ft | 536 kts | 126° |
| 2026-05-07 18:18 | 26.18159 | 84.01483 | 39837 ft | 536 kts | 127° |
| 2026-05-07 18:18 | 26.14305 | 84.08591 | 39833 ft | 536 kts | 127° |
| 2026-05-07 18:19 | 26.10444 | 84.15709 | 39837 ft | 536 kts | 127° |
| 2026-05-07 18:19 | 26.06600 | 84.22778 | 39838 ft | 536 kts | 127° |
| 2026-05-07 18:20 | 26.02733 | 84.29883 | 39841 ft | 535 kts | 127° |
| 2026-05-07 18:20 | 25.98883 | 84.36942 | 39836 ft | 536 kts | 127° |
| 2026-05-07 18:21 | 25.95006 | 84.44043 | 39842 ft | 537 kts | 127° |
| 2026-05-07 18:21 | 25.91127 | 84.51133 | 39837 ft | 536 kts | 127° |
| 2026-05-07 18:22 | 25.87264 | 84.58186 | 39838 ft | 536 kts | 127° |
| 2026-05-07 18:22 | 25.83375 | 84.65274 | 39831 ft | 536 kts | 127° |
| 2026-05-07 18:23 | 25.79516 | 84.72299 | 39833 ft | 535 kts | 127° |
| 2026-05-07 18:23 | 25.75627 | 84.79364 | 39836 ft | 536 kts | 127° |
| 2026-05-07 18:24 | 25.71729 | 84.86437 | 39839 ft | 535 kts | 128° |
| 2026-05-07 18:24 | 25.67860 | 84.93444 | 39845 ft | 536 kts | 128° |
| 2026-05-07 18:25 | 25.63957 | 85.00505 | 39849 ft | 536 kts | 128° |
| 2026-05-07 18:25 | 25.60152 | 85.07585 | 39875 ft | 542 kts | 119° |
| 2026-05-07 18:25 | 25.58791 | 85.11514 | 39884 ft | 550 kts | 108° |
| 2026-05-07 18:26 | 25.57958 | 85.15678 | 39873 ft | 554 kts | 105° |
| 2026-05-07 18:26 | 25.56499 | 85.24087 | 39861 ft | 555 kts | 104° |
| 2026-05-07 18:27 | 25.55038 | 85.32425 | 39863 ft | 555 kts | 105° |
| 2026-05-07 18:27 | 25.53561 | 85.40817 | 39855 ft | 554 kts | 104° |
| 2026-05-07 18:28 | 25.52086 | 85.49203 | 39857 ft | 554 kts | 105° |
| 2026-05-07 18:28 | 25.50601 | 85.57583 | 39858 ft | 554 kts | 105° |
| 2026-05-07 18:29 | 25.49118 | 85.65946 | 39852 ft | 552 kts | 105° |
| 2026-05-07 18:29 | 25.47640 | 85.74239 | 39854 ft | 552 kts | 105° |
| 2026-05-07 18:30 | 25.46147 | 85.82594 | 39853 ft | 552 kts | 105° |
| 2026-05-07 18:30 | 25.44649 | 85.90943 | 39853 ft | 552 kts | 105° |
| 2026-05-07 18:31 | 25.43161 | 85.99219 | 39855 ft | 551 kts | 105° |
| 2026-05-07 18:31 | 25.41661 | 86.07523 | 39856 ft | 550 kts | 105° |
| 2026-05-07 18:32 | 25.40153 | 86.15845 | 39862 ft | 551 kts | 105° |
| 2026-05-07 18:32 | 25.38642 | 86.24159 | 39861 ft | 551 kts | 105° |
| 2026-05-07 18:33 | 25.37134 | 86.32428 | 39871 ft | 550 kts | 105° |
| 2026-05-07 18:33 | 25.35612 | 86.40746 | 39866 ft | 551 kts | 106° |
| 2026-05-07 18:33 | 25.34598 | 86.44748 | 39906 ft | 542 kts | 117° |
| 2026-05-07 18:34 | 25.33087 | 86.48567 | 39884 ft | 541 kts | 120° |
| 2026-05-07 18:34 | 25.29935 | 86.56131 | 39887 ft | 542 kts | 120° |
| 2026-05-07 18:35 | 25.26802 | 86.63708 | 39886 ft | 542 kts | 120° |
| 2026-05-07 18:35 | 25.23671 | 86.71230 | 39889 ft | 541 kts | 120° |
| 2026-05-07 18:36 | 25.20526 | 86.78793 | 39888 ft | 540 kts | 120° |
| 2026-05-07 18:36 | 25.17396 | 86.86294 | 39886 ft | 542 kts | 120° |
| 2026-05-07 18:37 | 25.14229 | 86.93876 | 39887 ft | 543 kts | 120° |
| 2026-05-07 18:37 | 25.11057 | 87.01457 | 39886 ft | 543 kts | 120° |
| 2026-05-07 18:38 | 25.07897 | 87.08995 | 39888 ft | 544 kts | 120° |
| 2026-05-07 18:38 | 25.04714 | 87.16577 | 39885 ft | 544 kts | 121° |
| 2026-05-07 18:39 | 25.01517 | 87.24175 | 39884 ft | 545 kts | 120° |
| 2026-05-07 18:39 | 24.98338 | 87.31721 | 39884 ft | 545 kts | 120° |
| 2026-05-07 18:40 | 24.95134 | 87.39312 | 39883 ft | 545 kts | 120° |
| 2026-05-07 18:40 | 24.91933 | 87.46884 | 39881 ft | 544 kts | 121° |
| 2026-05-07 18:41 | 24.88732 | 87.54438 | 39883 ft | 543 kts | 121° |
| 2026-05-07 18:41 | 24.85550 | 87.61941 | 39882 ft | 543 kts | 121° |
| 2026-05-07 18:42 | 24.82349 | 87.69473 | 39875 ft | 542 kts | 121° |
| 2026-05-07 18:42 | 24.79684 | 87.75733 | 39873 ft | 541 kts | 121° |
| 2026-05-07 18:43 | 24.76005 | 87.84465 | 39867 ft | 541 kts | 119° |
| 2026-05-07 18:43 | 24.73438 | 87.90841 | 39519 ft | 548 kts | 120° |
| 2026-05-07 18:43 | 24.71335 | 87.95905 | 38857 ft | 548 kts | 120° |
| 2026-05-07 18:44 | 24.70282 | 87.98436 | 38528 ft | 546 kts | 120° |
| 2026-05-07 18:44 | 24.68721 | 88.02237 | 37951 ft | 544 kts | 120° |
| 2026-05-07 18:44 | 24.67167 | 88.06028 | 37375 ft | 541 kts | 121° |
| 2026-05-07 18:44 | 24.65599 | 88.09779 | 36804 ft | 538 kts | 121° |
| 2026-05-07 18:45 | 24.64032 | 88.13499 | 36251 ft | 535 kts | 121° |
| 2026-05-07 18:45 | 24.62479 | 88.17221 | 35713 ft | 534 kts | 121° |
| 2026-05-07 18:45 | 24.60935 | 88.20940 | 35180 ft | 535 kts | 121° |
| 2026-05-07 18:45 | 24.59376 | 88.24670 | 34644 ft | 538 kts | 122° |
| 2026-05-07 18:46 | 24.57806 | 88.28409 | 34121 ft | 540 kts | 122° |
| 2026-05-07 18:46 | 24.56249 | 88.32126 | 33540 ft | 541 kts | 122° |
| 2026-05-07 18:46 | 24.54680 | 88.35881 | 32932 ft | 541 kts | 122° |
| 2026-05-07 18:46 | 24.53084 | 88.39691 | 32331 ft | 540 kts | 122° |
| 2026-05-07 18:47 | 24.51509 | 88.43438 | 31747 ft | 539 kts | 122° |
| 2026-05-07 18:47 | 24.49950 | 88.47145 | 31179 ft | 539 kts | 122° |
| 2026-05-07 18:47 | 24.48378 | 88.50888 | 30613 ft | 539 kts | 122° |
| 2026-05-07 18:47 | 24.46810 | 88.54619 | 30073 ft | 536 kts | 122° |
| 2026-05-07 18:48 | 24.45269 | 88.58279 | 29443 ft | 530 kts | 122° |
| 2026-05-07 18:48 | 24.43755 | 88.61957 | 28798 ft | 527 kts | 118° |
| 2026-05-07 18:48 | 24.42501 | 88.65728 | 28176 ft | 523 kts | 117° |
| 2026-05-07 18:48 | 24.41252 | 88.69450 | 27550 ft | 517 kts | 117° |
| 2026-05-07 18:49 | 24.40006 | 88.73134 | 26939 ft | 511 kts | 116° |
| 2026-05-07 18:49 | 24.38782 | 88.76775 | 26337 ft | 506 kts | 116° |
| 2026-05-07 18:49 | 24.37586 | 88.80351 | 25752 ft | 501 kts | 116° |
| 2026-05-07 18:49 | 24.36387 | 88.83917 | 25186 ft | 495 kts | 116° |
| 2026-05-07 18:50 | 24.35194 | 88.87451 | 24620 ft | 490 kts | 116° |
| 2026-05-07 18:50 | 24.34014 | 88.90948 | 24064 ft | 486 kts | 115° |
| 2026-05-07 18:50 | 24.32845 | 88.94418 | 23521 ft | 482 kts | 115° |
| 2026-05-07 18:50 | 24.31702 | 88.97810 | 22879 ft | 477 kts | 115° |
| 2026-05-07 18:51 | 24.30550 | 89.01216 | 22234 ft | 473 kts | 115° |
| 2026-05-07 18:51 | 24.29412 | 89.04579 | 21605 ft | 468 kts | 114° |
| 2026-05-07 18:51 | 24.28284 | 89.07915 | 20989 ft | 463 kts | 114° |
| 2026-05-07 18:51 | 24.27168 | 89.11209 | 20383 ft | 458 kts | 114° |
| 2026-05-07 18:52 | 24.26065 | 89.14463 | 19794 ft | 452 kts | 113° |
| 2026-05-07 18:52 | 24.24975 | 89.17676 | 19225 ft | 447 kts | 113° |
| 2026-05-07 18:52 | 24.23911 | 89.20807 | 18663 ft | 442 kts | 113° |
| 2026-05-07 18:52 | 24.22839 | 89.23964 | 18080 ft | 437 kts | 112° |
| 2026-05-07 18:53 | 24.21785 | 89.27068 | 17431 ft | 432 kts | 112° |
| 2026-05-07 18:53 | 24.20741 | 89.30136 | 16801 ft | 427 kts | 112° |
| 2026-05-07 18:53 | 24.19706 | 89.33173 | 16184 ft | 422 kts | 112° |
| 2026-05-07 18:53 | 24.18695 | 89.36139 | 15580 ft | 418 kts | 112° |
| 2026-05-07 18:54 | 24.17682 | 89.39110 | 14987 ft | 414 kts | 112° |
| 2026-05-07 18:54 | 24.16677 | 89.42055 | 14367 ft | 413 kts | 112° |
| 2026-05-07 18:54 | 24.15666 | 89.45014 | 13655 ft | 416 kts | 112° |
| 2026-05-07 18:54 | 24.14655 | 89.47973 | 12910 ft | 412 kts | 112° |
| 2026-05-07 18:55 | 24.13658 | 89.50890 | 12205 ft | 406 kts | 112° |
| 2026-05-07 18:55 | 24.12671 | 89.53772 | 11519 ft | 400 kts | 111° |
| 2026-05-07 18:55 | 24.11716 | 89.56603 | 11101 ft | 387 kts | 109° |
| 2026-05-07 18:55 | 24.11244 | 89.59416 | 10968 ft | 366 kts | 97° |
| 2026-05-07 18:56 | 24.10874 | 89.62102 | 10830 ft | 347 kts | 100° |
| 2026-05-07 18:56 | 24.10491 | 89.64613 | 10696 ft | 331 kts | 99° |
| 2026-05-07 18:56 | 24.10147 | 89.67075 | 10553 ft | 315 kts | 98° |
| 2026-05-07 18:56 | 24.09838 | 89.69399 | 10363 ft | 304 kts | 98° |
| 2026-05-07 18:57 | 24.09533 | 89.71632 | 10086 ft | 297 kts | 99° |
| 2026-05-07 18:57 | 24.09219 | 89.73871 | 9806 ft | 298 kts | 99° |
| 2026-05-07 18:57 | 24.08907 | 89.76115 | 9507 ft | 297 kts | 98° |
| 2026-05-07 18:57 | 24.08598 | 89.78352 | 9219 ft | 296 kts | 98° |
| 2026-05-07 18:58 | 24.08292 | 89.80554 | 8927 ft | 289 kts | 99° |
| 2026-05-07 18:58 | 24.07990 | 89.82731 | 8657 ft | 290 kts | 99° |
| 2026-05-07 18:58 | 24.07689 | 89.84892 | 8376 ft | 290 kts | 99° |
| 2026-05-07 18:58 | 24.07386 | 89.87066 | 8095 ft | 285 kts | 99° |
| 2026-05-07 18:59 | 24.07089 | 89.89193 | 7818 ft | 283 kts | 99° |
| 2026-05-07 18:59 | 24.06790 | 89.91338 | 7531 ft | 284 kts | 99° |
| 2026-05-07 18:59 | 24.06492 | 89.93471 | 7256 ft | 283 kts | 99° |
| 2026-05-07 18:59 | 24.06199 | 89.95566 | 6987 ft | 278 kts | 99° |
| 2026-05-07 19:00 | 24.05907 | 89.97650 | 6707 ft | 277 kts | 99° |
| 2026-05-07 19:00 | 24.05614 | 89.99740 | 6437 ft | 278 kts | 99° |
| 2026-05-07 19:00 | 24.05322 | 90.01825 | 6143 ft | 274 kts | 99° |
| 2026-05-07 19:00 | 24.05082 | 90.03536 | 5903 ft | 271 kts | 99° |
| 2026-05-07 19:01 | 24.04803 | 90.05519 | 5691 ft | 256 kts | 99° |
| 2026-05-07 19:01 | 24.04537 | 90.07407 | 5417 ft | 245 kts | 99° |
| 2026-05-07 19:01 | 24.04285 | 90.09194 | 5172 ft | 235 kts | 99° |
| 2026-05-07 19:01 | 24.04041 | 90.10929 | 4930 ft | 227 kts | 99° |
| 2026-05-07 19:02 | 24.03804 | 90.12607 | 4698 ft | 219 kts | 99° |
| 2026-05-07 19:02 | 24.03575 | 90.14232 | 4463 ft | 213 kts | 99° |
| 2026-05-07 19:02 | 24.03352 | 90.15811 | 4242 ft | 207 kts | 99° |
| 2026-05-07 19:02 | 24.03136 | 90.17336 | 4042 ft | 199 kts | 99° |
| 2026-05-07 19:03 | 24.02929 | 90.18805 | 3836 ft | 191 kts | 99° |
| 2026-05-07 19:03 | 24.02731 | 90.20204 | 3661 ft | 184 kts | 99° |
| 2026-05-07 19:03 | 24.02537 | 90.21567 | 3475 ft | 178 kts | 99° |
| 2026-05-07 19:03 | 24.02301 | 90.22871 | 3301 ft | 173 kts | 105° |
| 2026-05-07 19:04 | 24.01898 | 90.24122 | 3216 ft | 176 kts | 113° |
| 2026-05-07 19:04 | 24.01337 | 90.25315 | 3128 ft | 176 kts | 121° |
| 2026-05-07 19:04 | 24.00663 | 90.26421 | 3033 ft | 176 kts | 125° |
| 2026-05-07 19:04 | 23.99817 | 90.27375 | 2899 ft | 172 kts | 143° |
| 2026-05-07 19:05 | 23.98880 | 90.28161 | 2823 ft | 171 kts | 142° |
| 2026-05-07 19:05 | 23.97911 | 90.28951 | 2739 ft | 175 kts | 144° |
| 2026-05-07 19:05 | 23.96940 | 90.29727 | 2654 ft | 170 kts | 144° |
| 2026-05-07 19:05 | 23.95955 | 90.30513 | 2456 ft | 176 kts | 144° |
| 2026-05-07 19:06 | 23.94980 | 90.31291 | 2237 ft | 170 kts | 144° |
| 2026-05-07 19:06 | 23.93081 | 90.32806 | 1804 ft | 168 kts | 144° |
| 2026-05-07 19:06 | 23.92171 | 90.33534 | 1594 ft | 157 kts | 144° |
| 2026-05-07 19:07 | 23.91306 | 90.34226 | 1383 ft | 155 kts | 144° |
| 2026-05-07 19:07 | 23.90442 | 90.34946 | 1195 ft | 154 kts | 143° |
| 2026-05-07 19:07 | 23.89592 | 90.35654 | 987 ft | 153 kts | 143° |
| 2026-05-07 19:07 | 23.88751 | 90.36349 | 793 ft | 154 kts | 144° |
| 2026-05-07 19:08 | 23.87857 | 90.36987 | 620 ft | 153 kts | 146° |
| 2026-05-07 19:08 | 23.86995 | 90.37667 | 405 ft | 152 kts | 143° |
| 2026-05-07 19:08 | 23.86147 | 90.38342 | 233 ft | 150 kts | 143° |
| 2026-05-07 19:08 | 23.85300 | 90.39012 | 52 ft | 148 kts | 142° |
| 2026-05-07 19:09 | 23.84551 | 90.39609 | 41 ft | 108 kts | 144° |
| 2026-05-07 19:09 | 23.84102 | 90.39964 | 42 ft | 58 kts | 144° |
| 2026-05-07 19:09 | 23.83837 | 90.40182 | 44 ft | 31 kts | 136° |
| 2026-05-07 19:09 | 23.83741 | 90.40358 | 43 ft | 27 kts | 115° |
| 2026-05-07 19:10 | 23.83699 | 90.40550 | 41 ft | 25 kts | 83° |
| 2026-05-07 19:10 | 23.83774 | 90.40717 | 41 ft | 24 kts | 54° |
| 2026-05-07 19:10 | 23.83886 | 90.40794 | 41 ft | 16 kts | 338° |
| 2026-05-07 19:10 | 23.83984 | 90.40725 | 41 ft | 18 kts | 323° |
| 2026-05-07 19:11 | 23.84086 | 90.40643 | 41 ft | 19 kts | 323° |
| 2026-05-07 19:11 | 23.84193 | 90.40557 | 41 ft | 19 kts | 324° |
| 2026-05-07 19:11 | 23.84305 | 90.40468 | 41 ft | 20 kts | 324° |
| 2026-05-07 19:11 | 23.84422 | 90.40376 | 41 ft | 21 kts | 324° |
| 2026-05-07 19:12 | 23.84540 | 90.40283 | 41 ft | 19 kts | 324° |
| 2026-05-07 19:12 | 23.84631 | 90.40243 | 41 ft | 11 kts | 18° |
| 2026-05-07 19:12 | 23.84680 | 90.40300 | 41 ft | 11 kts | 53° |
| 2026-05-07 19:12 | 23.84674 | 90.40363 | 40 ft | 9 kts | 136° |
| 2026-05-07 19:13 | 23.84609 | 90.40416 | 41 ft | 14 kts | 143° |
| 2026-05-07 19:13 | 23.84544 | 90.40475 | 41 ft | 8 kts | 123° |
| 2026-05-07 19:13 | 23.84549 | 90.40518 | 41 ft | 5 kts | 64° |
| 2026-05-07 19:13 | 23.84569 | 90.40548 | 41 ft | 3 kts | 53° |
| 2026-05-07 19:14 | 23.84572 | 90.40552 | 41 ft | 0 kts | 53° |